MSC Maureen — HPMP — position and weather

sailwx.info

Track history (hours):
 
Tides and Currents Weather Stations Pressure Air Temp Water Temp Dewpoint Dewpoint Depression Visibility Wind Speed Wind Dir Waves Ship Positions

MSC Maureen

Last reported at 2017-Nov-15 20:59 UTC. Time now 2017-Nov-21 13:37 UTC.
Position S 24°16' W 045°23'.

Length 301 m; draft 12.1 m.

Type: Ship. MMSI: 355216000.

Date/timePositionNaut miles runAvg speedWind from/ knotsBaromVisibWave heightAir tempDewpointWater temp
2017-Nov-15 20:59S 24°16' W 045°23'712.2
2017-Nov-15 20:25S 24°16' W 045°31'512.0
2017-Nov-15 19:57S 24°16' W 045°37'512.1
2017-Nov-15 19:30S 24°16' W 045°43'712.1
2017-Nov-15 18:55S 24°16' W 045°50'512.1
2017-Nov-15 18:29S 24°16' W 045°56'712.0
2017-Nov-15 17:56S 24°16' W 046°03'512.2
2017-Nov-15 17:29S 24°16' W 046°09'612.2
2017-Nov-15 16:58S 24°16' W 046°16'611.0
2017-Nov-15 16:26S 24°12' W 046°21'612.8
2017-Nov-15 16:00S 24°06' W 046°22'612.1
2017-Nov-15 15:29S 24°00' W 046°20'4 0.1
2017-Nov-13 23:53S 23°56' W 046°19'3 5.9
2017-Nov-13 23:20S 23°60' W 046°19'3 8.3
2017-Nov-13 22:59S 24°02' W 046°21'4 7.4
2017-Nov-13 22:29S 24°05' W 046°22'3 6.4
2017-Nov-13 22:00S 24°08' W 046°21'7 0.4
2017-Nov-13 02:00S 24°14' W 046°16'0 0.0
2017-Nov-13 01:15S 24°14' W 046°16'0 0.0
2017-Nov-12 23:55S 24°14' W 046°16'0 0.0
2017-Nov-12 22:23S 24°14' W 046°16'0 0.0
2017-Nov-12 21:59S 24°14' W 046°16'0 0.0
2017-Nov-12 21:25S 24°14' W 046°16'0 0.0
2017-Nov-12 21:00S 24°14' W 046°16'0 0.0
2017-Nov-12 20:28S 24°14' W 046°16'0 0.0
2017-Nov-12 20:00S 24°14' W 046°16'0 0.0
2017-Nov-12 19:22S 24°14' W 046°16'0 0.0
2017-Nov-12 18:59S 24°14' W 046°16'0 0.0
2017-Nov-12 18:30S 24°14' W 046°16'0 0.0
2017-Nov-12 17:54S 24°14' W 046°16'0 0.0
2017-Nov-12 17:29S 24°14' W 046°16'0 0.0
2017-Nov-12 16:58S 24°14' W 046°16'0 0.0
2017-Nov-12 16:30S 24°14' W 046°16'0 0.0
2017-Nov-12 15:58S 24°14' W 046°16'0 0.0
2017-Nov-12 15:19S 24°14' W 046°16'0 0.0
2017-Nov-12 15:00S 24°14' W 046°16'0 0.0
2017-Nov-12 14:30S 24°14' W 046°16'0 0.0
2017-Nov-12 13:59S 24°14' W 046°16'0 0.0
2017-Nov-12 13:29S 24°14' W 046°16'0 0.0
2017-Nov-12 12:45S 24°14' W 046°16'0 0.0
2017-Nov-12 12:25S 24°14' W 046°16'0 0.0
2017-Nov-12 11:45S 24°14' W 046°16'0 0.0
2017-Nov-12 11:19S 24°14' W 046°16'0 0.0
2017-Nov-12 11:00S 24°14' W 046°16'0 0.0
2017-Nov-12 10:27S 24°14' W 046°16'0 0.0
2017-Nov-12 09:58S 24°14' W 046°16'0 0.0
2017-Nov-12 09:30S 24°14' W 046°16'0 0.0
2017-Nov-12 08:59S 24°14' W 046°16'0 0.0
2017-Nov-12 08:30S 24°14' W 046°16'0 0.0
2017-Nov-12 07:58S 24°14' W 046°16'0 0.0
2017-Nov-12 07:29S 24°14' W 046°16'0 0.0
2017-Nov-12 07:00S 24°14' W 046°16'0 0.0
2017-Nov-12 06:29S 24°14' W 046°16'0 0.0
2017-Nov-12 05:58S 24°14' W 046°16'0 0.0
2017-Nov-12 05:30S 24°14' W 046°16'0 0.0
2017-Nov-12 04:57S 24°14' W 046°16'0 0.0
2017-Nov-12 04:29S 24°14' W 046°16'0 0.1
2017-Nov-12 04:00S 24°14' W 046°16'0 0.0
2017-Nov-12 03:29S 24°14' W 046°16'0 0.0
2017-Nov-12 03:00S 24°14' W 046°16'0 0.0
2017-Nov-12 02:24S 24°14' W 046°16'0 0.0
2017-Nov-12 02:00S 24°14' W 046°16'0 0.0
2017-Nov-12 01:27S 24°14' W 046°16'0 0.0
2017-Nov-12 00:59S 24°14' W 046°16'0 0.0
2017-Nov-12 00:29S 24°14' W 046°16'0 0.0
2017-Nov-12 00:00S 24°14' W 046°16'0 0.1
2017-Nov-11 23:30S 24°14' W 046°16'0 0.0
2017-Nov-11 22:59S 24°14' W 046°16'0 0.0
2017-Nov-11 22:29S 24°14' W 046°16'0 0.0
2017-Nov-11 22:00S 24°14' W 046°16'0 0.0
2017-Nov-11 21:30S 24°14' W 046°16'0 0.0
2017-Nov-11 20:58S 24°14' W 046°16'0 0.0
2017-Nov-11 20:28S 24°14' W 046°16'0 0.0
2017-Nov-11 19:50S 24°14' W 046°16'0 0.0
2017-Nov-11 19:24S 24°14' W 046°16'0 0.0
2017-Nov-11 18:56S 24°14' W 046°16'0 0.0
2017-Nov-11 18:23S 24°14' W 046°16'0 0.0
2017-Nov-11 17:53S 24°14' W 046°16'0 0.0
2017-Nov-11 17:30S 24°14' W 046°16'0 0.0
2017-Nov-11 16:57S 24°14' W 046°16'0 0.0
2017-Nov-11 16:30S 24°14' W 046°16'0 0.0
2017-Nov-11 15:54S 24°14' W 046°16'0 0.0
2017-Nov-11 15:30S 24°14' W 046°16'0 0.0
2017-Nov-11 14:56S 24°14' W 046°16'0 0.0
2017-Nov-11 14:29S 24°14' W 046°16'0 0.0
2017-Nov-11 13:58S 24°14' W 046°16'0 0.0
2017-Nov-11 13:24S 24°14' W 046°16'0 0.0
2017-Nov-11 12:59S 24°14' W 046°16'0 0.0
2017-Nov-11 12:29S 24°14' W 046°16'0 0.0
2017-Nov-11 12:00S 24°14' W 046°16'0 0.0
2017-Nov-11 11:27S 24°14' W 046°16'0 0.0
2017-Nov-11 10:57S 24°14' W 046°16'0 0.0
2017-Nov-11 10:30S 24°14' W 046°16'0 0.0
2017-Nov-11 09:59S 24°14' W 046°16'0 0.0
2017-Nov-11 09:30S 24°14' W 046°16'0 0.0
2017-Nov-11 09:00S 24°14' W 046°16'0 0.0
2017-Nov-11 08:29S 24°14' W 046°16'0 0.0
2017-Nov-11 07:57S 24°14' W 046°16'0 0.0
2017-Nov-11 07:30S 24°14' W 046°16'0 0.0
2017-Nov-11 07:00S 24°14' W 046°16'0 0.1
2017-Nov-11 06:29S 24°14' W 046°16'0 0.1
2017-Nov-11 05:58S 24°14' W 046°16'0 0.0
2017-Nov-11 05:28S 24°14' W 046°16'0 0.0
2017-Nov-11 04:53S 24°14' W 046°16'0 0.1
2017-Nov-11 04:27S 24°14' W 046°16'0 0.0
2017-Nov-11 04:00S 24°14' W 046°16'0 0.0
2017-Nov-11 03:26S 24°14' W 046°16'0 0.0
2017-Nov-11 02:59S 24°14' W 046°16'0 0.0
2017-Nov-11 02:30S 24°14' W 046°16'0 0.0
2017-Nov-11 01:49S 24°14' W 046°16'0 0.0
2017-Nov-11 01:27S 24°14' W 046°16'0 0.0
2017-Nov-11 00:59S 24°14' W 046°16'1 1.5
2017-Nov-11 00:30S 24°15' W 046°17'712.9
2017-Nov-10 23:59S 24°17' W 046°24'1017.0
2017-Nov-10 23:23S 24°25' W 046°31'617.3
2017-Nov-10 23:00S 24°31' W 046°33'917.2
2017-Nov-10 22:29S 24°38' W 046°39'1017.0
2017-Nov-10 21:54S 24°46' W 046°46'717.0
2017-Nov-10 21:28S 24°52' W 046°50'916.9
2017-Nov-10 20:55S 24°59' W 046°56'  
Track history (hours):
 
Tides and Currents Weather Stations Pressure Air Temp Water Temp Dewpoint Dewpoint Depression Visibility Wind Speed Wind Dir Waves Ship Positions

MSC Maureen

Last reported at 2017-Nov-15 20:59 UTC. Time now 2017-Nov-21 13:37 UTC.
Position S 24°16' W 045°23'.

Length 301 m; draft 12.1 m.

Type: Ship. MMSI: 355216000.

Date/timePositionNaut miles runAvg speedWind from/ knotsBaromVisibWave heightAir tempDewpointWater temp
2017-Nov-15 20:59S 24°16' W 045°23'712.2
2017-Nov-15 20:25S 24°16' W 045°31'512.0
2017-Nov-15 19:57S 24°16' W 045°37'512.1
2017-Nov-15 19:30S 24°16' W 045°43'712.1
2017-Nov-15 18:55S 24°16' W 045°50'512.1
2017-Nov-15 18:29S 24°16' W 045°56'712.0
2017-Nov-15 17:56S 24°16' W 046°03'512.2
2017-Nov-15 17:29S 24°16' W 046°09'612.2
2017-Nov-15 16:58S 24°16' W 046°16'611.0
2017-Nov-15 16:26S 24°12' W 046°21'612.8
2017-Nov-15 16:00S 24°06' W 046°22'612.1
2017-Nov-15 15:29S 24°00' W 046°20'4 0.1
2017-Nov-13 23:53S 23°56' W 046°19'3 5.9
2017-Nov-13 23:20S 23°60' W 046°19'3 8.3
2017-Nov-13 22:59S 24°02' W 046°21'4 7.4
2017-Nov-13 22:29S 24°05' W 046°22'3 6.4
2017-Nov-13 22:00S 24°08' W 046°21'7 0.4
2017-Nov-13 02:00S 24°14' W 046°16'0 0.0
2017-Nov-13 01:15S 24°14' W 046°16'0 0.0
2017-Nov-12 23:55S 24°14' W 046°16'0 0.0
2017-Nov-12 22:23S 24°14' W 046°16'0 0.0
2017-Nov-12 21:59S 24°14' W 046°16'0 0.0
2017-Nov-12 21:25S 24°14' W 046°16'0 0.0
2017-Nov-12 21:00S 24°14' W 046°16'0 0.0
2017-Nov-12 20:28S 24°14' W 046°16'0 0.0
2017-Nov-12 20:00S 24°14' W 046°16'0 0.0
2017-Nov-12 19:22S 24°14' W 046°16'0 0.0
2017-Nov-12 18:59S 24°14' W 046°16'0 0.0
2017-Nov-12 18:30S 24°14' W 046°16'0 0.0
2017-Nov-12 17:54S 24°14' W 046°16'0 0.0
2017-Nov-12 17:29S 24°14' W 046°16'0 0.0
2017-Nov-12 16:58S 24°14' W 046°16'0 0.0
2017-Nov-12 16:30S 24°14' W 046°16'0 0.0
2017-Nov-12 15:58S 24°14' W 046°16'0 0.0
2017-Nov-12 15:19S 24°14' W 046°16'0 0.0
2017-Nov-12 15:00S 24°14' W 046°16'0 0.0
2017-Nov-12 14:30S 24°14' W 046°16'0 0.0
2017-Nov-12 13:59S 24°14' W 046°16'0 0.0
2017-Nov-12 13:29S 24°14' W 046°16'0 0.0
2017-Nov-12 12:45S 24°14' W 046°16'0 0.0
2017-Nov-12 12:25S 24°14' W 046°16'0 0.0
2017-Nov-12 11:45S 24°14' W 046°16'0 0.0
2017-Nov-12 11:19S 24°14' W 046°16'0 0.0
2017-Nov-12 11:00S 24°14' W 046°16'0 0.0
2017-Nov-12 10:27S 24°14' W 046°16'0 0.0
2017-Nov-12 09:58S 24°14' W 046°16'0 0.0
2017-Nov-12 09:30S 24°14' W 046°16'0 0.0
2017-Nov-12 08:59S 24°14' W 046°16'0 0.0
2017-Nov-12 08:30S 24°14' W 046°16'0 0.0
2017-Nov-12 07:58S 24°14' W 046°16'0 0.0
2017-Nov-12 07:29S 24°14' W 046°16'0 0.0
2017-Nov-12 07:00S 24°14' W 046°16'0 0.0
2017-Nov-12 06:29S 24°14' W 046°16'0 0.0
2017-Nov-12 05:58S 24°14' W 046°16'0 0.0
2017-Nov-12 05:30S 24°14' W 046°16'0 0.0
2017-Nov-12 04:57S 24°14' W 046°16'0 0.0
2017-Nov-12 04:29S 24°14' W 046°16'0 0.1
2017-Nov-12 04:00S 24°14' W 046°16'0 0.0
2017-Nov-12 03:29S 24°14' W 046°16'0 0.0
2017-Nov-12 03:00S 24°14' W 046°16'0 0.0
2017-Nov-12 02:24S 24°14' W 046°16'0 0.0
2017-Nov-12 02:00S 24°14' W 046°16'0 0.0
2017-Nov-12 01:27S 24°14' W 046°16'0 0.0
2017-Nov-12 00:59S 24°14' W 046°16'0 0.0
2017-Nov-12 00:29S 24°14' W 046°16'0 0.0
2017-Nov-12 00:00S 24°14' W 046°16'0 0.1
2017-Nov-11 23:30S 24°14' W 046°16'0 0.0
2017-Nov-11 22:59S 24°14' W 046°16'0 0.0
2017-Nov-11 22:29S 24°14' W 046°16'0 0.0
2017-Nov-11 22:00S 24°14' W 046°16'0 0.0
2017-Nov-11 21:30S 24°14' W 046°16'0 0.0
2017-Nov-11 20:58S 24°14' W 046°16'0 0.0
2017-Nov-11 20:28S 24°14' W 046°16'0 0.0
2017-Nov-11 19:50S 24°14' W 046°16'0 0.0
2017-Nov-11 19:24S 24°14' W 046°16'0 0.0
2017-Nov-11 18:56S 24°14' W 046°16'0 0.0
2017-Nov-11 18:23S 24°14' W 046°16'0 0.0
2017-Nov-11 17:53S 24°14' W 046°16'0 0.0
2017-Nov-11 17:30S 24°14' W 046°16'0 0.0
2017-Nov-11 16:57S 24°14' W 046°16'0 0.0
2017-Nov-11 16:30S 24°14' W 046°16'0 0.0
2017-Nov-11 15:54S 24°14' W 046°16'0 0.0
2017-Nov-11 15:30S 24°14' W 046°16'0 0.0
2017-Nov-11 14:56S 24°14' W 046°16'0 0.0
2017-Nov-11 14:29S 24°14' W 046°16'0 0.0
2017-Nov-11 13:58S 24°14' W 046°16'0 0.0
2017-Nov-11 13:24S 24°14' W 046°16'0 0.0
2017-Nov-11 12:59S 24°14' W 046°16'0 0.0
2017-Nov-11 12:29S 24°14' W 046°16'0 0.0
2017-Nov-11 12:00S 24°14' W 046°16'0 0.0
2017-Nov-11 11:27S 24°14' W 046°16'0 0.0
2017-Nov-11 10:57S 24°14' W 046°16'0 0.0
2017-Nov-11 10:30S 24°14' W 046°16'0 0.0
2017-Nov-11 09:59S 24°14' W 046°16'0 0.0
2017-Nov-11 09:30S 24°14' W 046°16'0 0.0
2017-Nov-11 09:00S 24°14' W 046°16'0 0.0
2017-Nov-11 08:29S 24°14' W 046°16'0 0.0
2017-Nov-11 07:57S 24°14' W 046°16'0 0.0
2017-Nov-11 07:30S 24°14' W 046°16'0 0.0
2017-Nov-11 07:00S 24°14' W 046°16'0 0.1
2017-Nov-11 06:29S 24°14' W 046°16'0 0.1
2017-Nov-11 05:58S 24°14' W 046°16'0 0.0
2017-Nov-11 05:28S 24°14' W 046°16'0 0.0
2017-Nov-11 04:53S 24°14' W 046°16'0 0.1
2017-Nov-11 04:27S 24°14' W 046°16'0 0.0
2017-Nov-11 04:00S 24°14' W 046°16'0 0.0
2017-Nov-11 03:26S 24°14' W 046°16'0 0.0
2017-Nov-11 02:59S 24°14' W 046°16'0 0.0
2017-Nov-11 02:30S 24°14' W 046°16'0 0.0
2017-Nov-11 01:49S 24°14' W 046°16'0 0.0
2017-Nov-11 01:27S 24°14' W 046°16'0 0.0
2017-Nov-11 00:59S 24°14' W 046°16'1 1.5
2017-Nov-11 00:30S 24°15' W 046°17'712.9
2017-Nov-10 23:59S 24°17' W 046°24'1017.0
2017-Nov-10 23:23S 24°25' W 046°31'617.3
2017-Nov-10 23:00S 24°31' W 046°33'917.2
2017-Nov-10 22:29S 24°38' W 046°39'1017.0
2017-Nov-10 21:54S 24°46' W 046°46'717.0
2017-Nov-10 21:28S 24°52' W 046°50'916.9
2017-Nov-10 20:55S 24°59' W 046°56'  

Dump ship's entire track history